GMTT/TNG METAR and TAF weather

Enter ICAO airport designator
Station Type Date Time Source
GMTT METAR 2022/05/26 04:00 UTC NOAA

GMTT 260400Z 07021KT CAVOK 19/16 Q1016 NOSIG


Station Type Date Time Source
GMTT Decoded METAR 2022/05/26 04:00 UTC NOAA

Tanger Aerodrome , Morocco (GMTT) 35-44N 005-54W 21M
May 26, 2022 - 12:00 AM EDT / 2022.05.26 0400 UTC
Wind: from the ENE (070 degrees) at 24 MPH (21 KT):0
Visibility: greater than 7 mile(s):0
Temperature: 66 F (19 C)
Dew Point: 60 F (16 C)
Relative Humidity: 82%
Pressure (altimeter): 30.00 in. Hg (1016 hPa)
ob: GMTT 260400Z 07021KT CAVOK 19/16 Q1016 NOSIG
cycle: 4

Station Type Date Time Source
GMTT TAF 2022/05/25 18:18 UTC NOAA

TAF GMTT 251700Z 2518/2624 34010KT CAVOK
TEMPO 2609/2624 07019G30KT

Example: see airport list